»·PEaware :: N43EP KSNA-KSNA

N43EP :: KSNA-KSNA

FLIGHT INFORMATION

Flight Status: Arrived
Operator: Privately registered:
United States
More flights under this callsign
Pilot: Kateryna S. (28551)
Aircraft: CIRRUS VISIONJET
(SF50)
More flights by this aircraft type
Origin: KSNA John Wayne-Orange Co
United States
Destination: KSNA John Wayne-Orange Co
United States
More flights between these airports :: More routes between these airports
Route: MUSEL8 MUSEL SLI
File this flight plan on PilotEdge
Remarks:
Altitude:
(Current/Filed)
5,000ft
Speed:
(Current/Filed)
180kts
Departed: 03-Dec-21 12:47 PM
Arrived: 03-Dec-21 01:23 PM
Distance/Time
Traveled:
0nm/0:36
Distance/Time
To Go:
Arrived

Flight Plot

Page will automatically refresh every two minutes.

Flight plan parsing failed; only flown route is shown


Map Options




Map Legend


Flown Route
Filed Route
Departure Airport
Arrival Airport
Navaid (VOR, NDB)
Fix

Horizontal Profiles

Position Reports

Time Latitude Longitude Heading Altitude Ground
Speed
03-Dec-21 11:57 33.672454 -117.867187 208 60ft 0kts
03-Dec-21 11:58 33.672454 -117.867187 208 60ft 0kts
03-Dec-21 11:59 33.672454 -117.867187 208 60ft 0kts
03-Dec-21 12:00 33.672454 -117.867187 208 60ft 0kts
03-Dec-21 12:01 33.672454 -117.867187 208 60ft 0kts
03-Dec-21 12:02 33.672454 -117.867187 208 60ft 0kts
03-Dec-21 12:03 33.672454 -117.867187 208 60ft 0kts
03-Dec-21 12:04 33.672454 -117.867187 208 60ft 0kts
03-Dec-21 12:05 33.672454 -117.867187 208 60ft 0kts
03-Dec-21 12:06 33.672454 -117.867187 208 60ft 0kts
03-Dec-21 12:07 33.672454 -117.867187 208 60ft 0kts
03-Dec-21 12:08 33.672454 -117.867187 208 60ft 0kts
03-Dec-21 12:09 33.672454 -117.867187 208 60ft 0kts
03-Dec-21 12:10 33.672454 -117.867187 208 60ft 0kts
03-Dec-21 12:11 33.672454 -117.867187 208 60ft 0kts
03-Dec-21 12:12 33.672454 -117.867187 208 60ft 0kts
03-Dec-21 12:13 33.672454 -117.867187 208 60ft 0kts
03-Dec-21 12:14 33.672454 -117.867187 208 60ft 0kts
03-Dec-21 12:15 33.672454 -117.867187 208 60ft 0kts
03-Dec-21 12:16 33.672454 -117.867187 208 60ft 0kts
03-Dec-21 12:17 33.672454 -117.867187 208 60ft 0kts
03-Dec-21 12:18 33.672454 -117.867187 208 60ft 0kts
03-Dec-21 12:19 33.672454 -117.867187 208 60ft 0kts
03-Dec-21 12:20 33.672454 -117.867187 208 60ft 0kts
03-Dec-21 12:21 33.672454 -117.867187 208 60ft 0kts
03-Dec-21 12:22 33.672454 -117.867187 208 60ft 0kts
03-Dec-21 12:23 33.672454 -117.867187 208 60ft 0kts
03-Dec-21 12:24 33.672454 -117.867187 208 60ft 0kts
03-Dec-21 12:25 33.672454 -117.867187 208 60ft 0kts
03-Dec-21 12:26 33.672425 -117.867206 208 60ft 0kts
03-Dec-21 12:27 33.672425 -117.867206 208 60ft 0kts
03-Dec-21 12:28 33.672425 -117.867206 208 60ft 0kts
03-Dec-21 12:29 33.672425 -117.867206 208 60ft 0kts
03-Dec-21 12:30 33.672425 -117.867206 208 60ft 0kts
03-Dec-21 12:31 33.672425 -117.867206 208 60ft 0kts
03-Dec-21 12:32 33.672425 -117.867206 208 60ft 0kts
03-Dec-21 12:33 33.672425 -117.867206 208 60ft 0kts
03-Dec-21 12:34 33.672425 -117.867206 208 60ft 0kts
03-Dec-21 12:35 33.672425 -117.867206 208 60ft 0kts
03-Dec-21 12:36 33.672425 -117.867206 208 60ft 0kts
03-Dec-21 12:37 33.672425 -117.867206 208 60ft 0kts
03-Dec-21 12:38 33.672425 -117.867206 208 60ft 0kts
03-Dec-21 12:39 33.672425 -117.867206 208 60ft 0kts
03-Dec-21 12:40 33.672414 -117.867214 208 60ft 0kts
03-Dec-21 12:41 33.673090 -117.867270 48 60ft 14kts
03-Dec-21 12:42 33.677198 -117.864515 27 60ft 16kts
03-Dec-21 12:43 33.680515 -117.862909 312 60ft 8kts
03-Dec-21 12:44 33.680625 -117.863069 303 60ft 0kts
03-Dec-21 12:45 33.681314 -117.865141 228 60ft 11kts
03-Dec-21 12:46 33.660540 -117.875625 190 843ft 131kts
03-Dec-21 12:47 33.615298 -117.883932 188 2851ft 169kts
03-Dec-21 12:48 33.584191 -117.913105 290 4905ft 177kts
03-Dec-21 12:49 33.611513 -117.969653 301 5022ft 203kts
03-Dec-21 12:50 33.641036 -118.027459 317 5008ft 203kts
03-Dec-21 12:51 33.690158 -118.010448 31 5020ft 199kts
03-Dec-21 12:52 33.737357 -117.975148 31 5021ft 200kts
03-Dec-21 12:53 33.784795 -117.939720 31 5021ft 201kts
03-Dec-21 12:54 33.832013 -117.904480 31 4237ft 198kts
03-Dec-21 12:55 33.878602 -117.869640 31 3234ft 196kts
03-Dec-21 12:56 33.922495 -117.832314 66 3003ft 196kts
03-Dec-21 12:57 33.908143 -117.769743 110 3024ft 197kts
03-Dec-21 12:58 33.868409 -117.749245 196 3024ft 162kts
03-Dec-21 12:59 33.827997 -117.771575 206 2747ft 164kts
03-Dec-21 13:00 33.787560 -117.798200 208 2273ft 143kts
03-Dec-21 13:01 33.757826 -117.816454 208 1825ft 122kts
03-Dec-21 13:02 33.731162 -117.833590 208 1183ft 103kts
03-Dec-21 13:03 33.705977 -117.849647 208 637ft 102kts
03-Dec-21 13:04 33.680734 -117.865715 208 191ft 100kts
03-Dec-21 13:05 33.648210 -117.885206 206 1863ft 159kts
03-Dec-21 13:06 33.603993 -117.911529 205 3022ft 193kts
03-Dec-21 13:07 33.608537 -117.957044 355 3029ft 197kts
03-Dec-21 13:08 33.662864 -117.956791 359 3027ft 194kts
03-Dec-21 13:09 33.716457 -117.956535 0 3027ft 193kts
03-Dec-21 13:10 33.769961 -117.956195 359 3029ft 192kts
03-Dec-21 13:11 33.814220 -117.928293 49 3001ft 193kts
03-Dec-21 13:12 33.847987 -117.878033 50 3010ft 193kts
03-Dec-21 13:13 33.881809 -117.827774 50 2989ft 194kts
03-Dec-21 13:14 33.915302 -117.776970 65 2989ft 194kts
03-Dec-21 13:15 33.881517 -117.744626 182 2979ft 182kts
03-Dec-21 13:16 33.838054 -117.765289 207 2968ft 159kts
03-Dec-21 13:17 33.801508 -117.788803 207 2788ft 140kts
03-Dec-21 13:18 33.770921 -117.808001 207 2103ft 119kts
03-Dec-21 13:20 33.742207 -117.826438 208 1424ft 113kts
03-Dec-21 13:21 33.715788 -117.843281 206 853ft 105kts
03-Dec-21 13:22 33.690056 -117.859769 207 285ft 103kts
03-Dec-21 13:23 33.674455 -117.868495 155 60ft 5kts
03-Dec-21 13:24 33.674429 -117.868480 152 60ft 1kts

Navigation Log

Ident Type
Flight plan parsing failed, navigation log unavailable